createdAt,value
2022-10-22T09:27:20.215Z,21.09
2022-10-22T09:29:48.678Z,21.31
2022-10-22T09:32:17.971Z,21.50
2022-10-22T09:34:49.588Z,21.65
2022-10-22T09:37:20.479Z,21.80
2022-10-22T09:39:52.914Z,21.93
2022-10-22T09:42:22.135Z,22.03
2022-10-22T09:44:59.333Z,22.12
2022-10-22T09:48:00.478Z,22.19
2022-10-22T09:50:55.327Z,22.26
2022-10-22T09:53:37.779Z,22.30
2022-10-22T09:56:26.102Z,22.33
2022-10-22T09:58:57.348Z,22.37
2022-10-22T10:01:36.273Z,22.41
2022-10-22T10:04:11.193Z,22.45
2022-10-22T10:06:42.148Z,22.48
2022-10-22T10:09:26.617Z,22.50
2022-10-22T10:12:15.995Z,22.52
2022-10-22T10:15:21.945Z,22.52
2022-10-22T10:18:10.206Z,22.51
2022-10-22T10:20:56.077Z,22.50
2022-10-22T10:23:41.733Z,22.47
2022-10-22T10:26:18.533Z,22.46
2022-10-22T10:28:49.236Z,22.47
2022-10-22T10:31:38.273Z,22.48
2022-10-22T10:34:24.600Z,22.47
2022-10-22T10:37:02.217Z,22.46
2022-10-22T10:40:17.911Z,22.45
2022-10-22T10:42:53.537Z,22.44
2022-10-22T10:45:42.506Z,22.42
2022-10-22T10:48:23.576Z,22.41
2022-10-22T10:51:03.340Z,22.39
2022-10-22T10:53:51.631Z,22.37
2022-10-22T10:56:39.170Z,22.37
2022-10-22T10:59:45.629Z,22.37
2022-10-22T11:02:27.767Z,22.35
2022-10-22T11:05:16.772Z,22.34
2022-10-22T11:07:55.872Z,22.33
2022-10-22T11:10:29.402Z,22.32
2022-10-22T11:13:03.698Z,22.30
2022-10-22T11:15:37.267Z,22.28
2022-10-22T11:18:39.496Z,22.27
2022-10-22T11:21:09.506Z,22.24
2022-10-22T11:23:49.606Z,22.21
2022-10-22T11:26:25.182Z,22.20
2022-10-22T11:28:55.059Z,22.18
2022-10-22T11:31:25.621Z,22.19
2022-10-22T11:34:28.573Z,22.20
2022-10-22T11:36:56.889Z,22.20
2022-10-22T11:39:37.200Z,22.19
2022-10-22T11:42:27.050Z,22.18
2022-10-22T11:45:04.092Z,22.17
2022-10-22T11:47:52.526Z,22.15
2022-10-22T11:51:11.513Z,22.12
2022-10-22T11:53:39.418Z,22.08
2022-10-22T11:56:06.969Z,22.07
2022-10-22T11:58:42.504Z,22.09
2022-10-22T12:01:10.809Z,22.12
2022-10-22T12:03:45.179Z,22.14
2022-10-22T12:06:16.266Z,22.13
2022-10-22T12:08:49.268Z,22.14
2022-10-22T12:11:22.078Z,22.13
2022-10-22T12:14:14.569Z,22.10
2022-10-22T12:27:38.627Z,22.11
2022-10-22T12:30:25.989Z,22.08
2022-10-22T12:33:00.952Z,22.06
2022-10-22T12:35:43.580Z,22.05
